createdAt,value
2022-08-11T00:02:15.089Z,92249.66
2022-08-11T00:04:49.482Z,92250.25
2022-08-11T00:07:22.716Z,92252.44
2022-08-11T00:09:56.539Z,92252.81
2022-08-11T00:12:30.067Z,92252.25
2022-08-11T00:15:03.065Z,92259.63
2022-08-11T00:17:36.723Z,92256.19
2022-08-11T00:20:16.207Z,92256.09
2022-08-11T00:22:50.754Z,92264.34
2022-08-11T00:25:24.323Z,92260.16
2022-08-11T00:27:56.761Z,92261.94
2022-08-11T00:30:38.904Z,92253.59
2022-08-11T00:33:11.568Z,92247.03
2022-08-11T00:35:51.650Z,92247.78
2022-08-11T00:38:34.144Z,92248.69
2022-08-11T00:41:28.199Z,92255.38
2022-08-11T00:44:19.383Z,92248.06
2022-08-11T00:47:02.124Z,92247.69
2022-08-11T00:49:45.091Z,92250.09
2022-08-11T00:52:44.337Z,92237.59
2022-08-11T00:55:55.821Z,92241.91
2022-08-11T00:59:34.165Z,92247.81
2022-08-11T01:02:18.140Z,92237.47
2022-08-11T01:05:22.988Z,92235.44
2022-08-11T01:08:28.987Z,92241.44
2022-08-11T01:11:56.008Z,92245.66
2022-08-11T01:15:14.977Z,92229.59
2022-08-11T01:18:35.079Z,92229.59
2022-08-11T01:21:38.007Z,92226.75
2022-08-11T01:24:42.435Z,92240.50
2022-08-11T01:27:52.495Z,92235.53
2022-08-11T01:31:06.012Z,92232.59
2022-08-11T01:34:15.689Z,92232.59
2022-08-11T01:37:06.497Z,92240.59
2022-08-11T01:40:15.118Z,92234.56
2022-08-11T01:43:35.030Z,92234.66
2022-08-11T01:46:15.602Z,92232.34
2022-08-11T01:50:09.057Z,92227.19
2022-08-11T01:52:12.995Z,92231.81
2022-08-11T01:54:56.427Z,92225.44
2022-08-11T01:57:37.639Z,92231.81
2022-08-11T02:00:15.873Z,92234.78
2022-08-11T02:02:55.881Z,92230.03
2022-08-11T02:05:47.114Z,92232.47
2022-08-11T02:08:44.208Z,92234.88
2022-08-11T02:11:35.188Z,92223.25
2022-08-11T02:14:20.240Z,92226.88
2022-08-11T02:17:15.455Z,92226.84
2022-08-11T02:20:13.069Z,92221.25
2022-08-11T02:23:12.565Z,92230.00
2022-08-11T02:25:53.753Z,92228.69
2022-08-11T02:28:34.695Z,92229.69
2022-08-11T02:32:15.804Z,92225.50
2022-08-11T02:34:40.198Z,92227.38
2022-08-11T02:37:23.892Z,92231.72
2022-08-11T02:40:15.906Z,92231.69
2022-08-11T02:43:09.607Z,92229.81
2022-08-11T02:45:53.872Z,92229.44
2022-08-11T02:49:00.144Z,92219.47
2022-08-11T02:51:48.117Z,92220.41
2022-08-11T02:54:26.165Z,92224.94
2022-08-11T02:57:04.025Z,92225.69
2022-08-11T02:59:52.658Z,92220.56
2022-08-11T03:02:46.197Z,92224.72
2022-08-11T03:05:27.044Z,92221.97
2022-08-11T03:08:13.807Z,92222.72
2022-08-11T03:11:15.074Z,92234.53
2022-08-11T03:14:15.964Z,92228.59
2022-08-11T03:16:55.247Z,92240.72
2022-08-11T03:19:42.419Z,92227.28
2022-08-11T03:22:23.130Z,92213.34
2022-08-11T03:25:02.642Z,92232.00
2022-08-11T03:27:48.591Z,92237.38
2022-08-11T03:30:27.565Z,92226.41
2022-08-11T03:33:37.647Z,92213.34
2022-08-11T03:36:28.001Z,92224.41
2022-08-11T03:39:13.394Z,92217.06
2022-08-11T03:42:03.516Z,92223.66
2022-08-11T03:45:12.619Z,92225.84
2022-08-11T03:47:57.023Z,92231.63
2022-08-11T03:51:03.400Z,92226.81
2022-08-11T03:53:57.738Z,92220.44
2022-08-11T03:57:15.120Z,92225.59
2022-08-11T04:00:11.218Z,92229.25
2022-08-11T04:03:12.653Z,92227.59
2022-08-11T04:06:17.439Z,92225.53
2022-08-11T04:09:23.739Z,92223.94
2022-08-11T04:12:47.714Z,92228.72
2022-08-11T04:16:12.440Z,92217.59
2022-08-11T04:19:15.029Z,92219.00
2022-08-11T04:22:35.665Z,92218.38
2022-08-11T04:25:57.923Z,92219.00
2022-08-11T04:28:55.322Z,92231.28
2022-08-11T04:31:44.451Z,92223.09
2022-08-11T04:34:54.742Z,92229.44
2022-08-11T04:37:43.064Z,92223.22
2022-08-11T04:40:43.923Z,92228.81
2022-08-11T04:44:06.936Z,92232.66
2022-08-11T04:47:01.306Z,92226.44
2022-08-11T04:50:16.668Z,92227.66
2022-08-11T04:53:43.956Z,92231.16
2022-08-11T04:56:36.451Z,92231.09
2022-08-11T04:59:46.178Z,92234.63
2022-08-11T05:02:48.046Z,92232.56
2022-08-11T05:05:31.778Z,92232.81
2022-08-11T05:08:39.614Z,92230.44
2022-08-11T05:11:33.659Z,92220.72
2022-08-11T05:14:48.323Z,92228.91
2022-08-11T05:17:58.587Z,92225.19
2022-08-11T05:20:58.878Z,92216.97
2022-08-11T05:23:52.352Z,92225.66
2022-08-11T05:26:49.345Z,92225.44
2022-08-11T05:29:46.889Z,92230.06
2022-08-11T05:32:44.874Z,92222.25
2022-08-11T05:36:00.015Z,92212.13
2022-08-11T05:38:41.168Z,92209.72
2022-08-11T05:41:32.847Z,92218.25
2022-08-11T05:44:24.908Z,92208.09
2022-08-11T05:47:16.060Z,92212.47
2022-08-11T05:50:08.240Z,92212.09
2022-08-11T05:53:08.909Z,92206.25
2022-08-11T05:56:03.976Z,92221.56
2022-08-11T05:58:42.733Z,92226.34
2022-08-11T06:01:24.781Z,92230.91
2022-08-11T06:04:14.190Z,92234.00
2022-08-11T06:06:52.538Z,92215.19
2022-08-11T06:09:28.184Z,92234.44
2022-08-11T06:12:03.517Z,92235.56
2022-08-11T06:14:42.462Z,92234.34
2022-08-11T06:17:23.017Z,92230.84
2022-08-11T06:20:04.234Z,92229.22
2022-08-11T06:22:43.909Z,92226.09
2022-08-11T06:25:17.457Z,92226.75
2022-08-11T06:27:56.147Z,92226.28
2022-08-11T06:30:39.832Z,92228.41
2022-08-11T06:33:15.881Z,92228.66
2022-08-11T06:35:59.973Z,92228.31
2022-08-11T06:38:53.645Z,92222.09
2022-08-11T06:41:33.825Z,92234.88
2022-08-11T06:44:27.450Z,92225.69
2022-08-11T06:47:08.491Z,92233.28
2022-08-11T06:50:04.005Z,92233.56
2022-08-11T06:52:38.236Z,92224.38
2022-08-11T06:55:56.721Z,92229.94
2022-08-11T06:58:49.442Z,92231.16
2022-08-11T07:01:37.393Z,92232.19
2022-08-11T07:04:11.077Z,92244.53
2022-08-11T07:07:12.276Z,92241.25
2022-08-11T07:10:41.709Z,92252.28
2022-08-11T07:18:30.757Z,92254.69
2022-08-11T07:22:01.477Z,92253.22
2022-08-11T07:25:01.347Z,92254.63
2022-08-11T07:28:00.081Z,92255.06
2022-08-11T07:30:37.362Z,92247.56
2022-08-11T07:33:11.505Z,92247.28
2022-08-11T07:36:04.998Z,92243.50
2022-08-11T07:38:43.615Z,92247.31
2022-08-11T07:41:22.360Z,92249.66
2022-08-11T07:44:08.447Z,92243.75
2022-08-11T07:47:01.182Z,92244.19
2022-08-11T07:49:55.560Z,92247.66
2022-08-11T07:52:31.743Z,92249.88
2022-08-11T07:55:08.482Z,92250.38
2022-08-11T07:58:16.395Z,92246.66
2022-08-11T08:01:21.793Z,92249.00
2022-08-11T08:04:13.550Z,92243.41
2022-08-11T08:07:04.720Z,92247.22
2022-08-11T08:09:56.204Z,92238.16
2022-08-11T08:12:48.690Z,92245.47
2022-08-11T08:15:40.861Z,92242.81
2022-08-11T08:18:27.091Z,92253.88
2022-08-11T08:21:11.240Z,92247.44
2022-08-11T08:23:45.864Z,92245.16
2022-08-11T08:26:40.455Z,92238.28
2022-08-11T08:29:30.991Z,92242.47
2022-08-11T08:32:04.781Z,92242.47
2022-08-11T08:34:37.959Z,92236.75
2022-08-11T08:37:16.215Z,92230.66
2022-08-11T08:40:07.611Z,92223.38
2022-08-11T08:42:50.745Z,92228.31
2022-08-11T08:45:24.696Z,92236.63
2022-08-11T08:48:01.443Z,92231.28
2022-08-11T08:50:54.697Z,92232.38
2022-08-11T08:53:31.318Z,92228.53
2022-08-11T08:56:07.002Z,92235.16
2022-08-11T08:58:42.246Z,92225.84
2022-08-11T09:01:16.291Z,92221.31
2022-08-11T09:04:05.127Z,92221.75
2022-08-11T09:06:42.376Z,92215.41
2022-08-11T09:09:15.267Z,92214.28
2022-08-11T09:11:52.992Z,92222.56
2022-08-11T09:14:48.439Z,92216.03
2022-08-11T09:17:22.216Z,92211.47
2022-08-11T09:19:59.721Z,92210.09
2022-08-11T09:23:29.639Z,92212.56
2022-08-11T09:26:10.399Z,92209.75
2022-08-11T09:28:43.986Z,92211.78
2022-08-11T09:31:16.908Z,92210.34
2022-08-11T09:33:53.667Z,92210.97
2022-08-11T09:36:45.950Z,92201.69
2022-08-11T09:39:37.960Z,92192.03
2022-08-11T09:42:16.671Z,92201.16
2022-08-11T09:44:56.834Z,92196.22
2022-08-11T09:47:31.064Z,92197.25
2022-08-11T09:50:05.137Z,92200.16
2022-08-11T09:53:38.158Z,92192.34
2022-08-11T09:55:54.050Z,92193.59
2022-08-11T09:58:41.450Z,92191.69
2022-08-11T10:01:26.426Z,92185.97
2022-08-11T10:04:03.644Z,92177.06
2022-08-11T10:06:57.191Z,92179.84
2022-08-11T10:09:38.571Z,92181.56
2022-08-11T10:12:14.455Z,92184.03
2022-08-11T10:15:10.611Z,92178.56
2022-08-11T10:18:06.050Z,92187.16
2022-08-11T10:20:39.431Z,92181.38
2022-08-11T10:23:33.988Z,92174.03
2022-08-11T10:26:26.922Z,92181.84
2022-08-11T10:29:26.339Z,92184.72
2022-08-11T10:32:54.303Z,92191.31
2022-08-11T10:35:31.225Z,92183.50
2022-08-11T10:38:05.859Z,92184.00
2022-08-11T10:40:40.905Z,92190.41
2022-08-11T10:44:02.568Z,92172.56
2022-08-11T10:46:30.383Z,92170.09
2022-08-11T10:49:03.448Z,92169.00
2022-08-11T10:51:54.457Z,92173.13
2022-08-11T10:54:51.194Z,92166.56
2022-08-11T10:57:42.525Z,92162.13
2022-08-11T11:00:36.062Z,92161.50
2022-08-11T11:03:23.395Z,92171.25
2022-08-11T11:06:28.666Z,92162.25
2022-08-11T11:09:04.077Z,92154.63
2022-08-11T11:12:00.880Z,92158.81
2022-08-11T11:14:58.184Z,92157.19
2022-08-11T11:17:57.012Z,92157.88
2022-08-11T11:20:38.718Z,92150.88
2022-08-11T11:23:17.901Z,92145.56
2022-08-11T11:26:14.155Z,92146.94
2022-08-11T11:29:07.507Z,92151.03
2022-08-11T11:31:55.816Z,92150.59
2022-08-11T11:34:52.868Z,92139.13
2022-08-11T11:37:29.252Z,92154.22
2022-08-11T11:40:09.688Z,92152.94
2022-08-11T11:42:44.299Z,92150.03
2022-08-11T11:45:23.777Z,92142.56
2022-08-11T11:47:59.568Z,92154.28
2022-08-11T11:50:36.365Z,92153.78
2022-08-11T11:53:12.860Z,92148.66
2022-08-11T11:55:46.603Z,92147.03
2022-08-11T11:58:37.526Z,92139.34
2022-08-11T12:01:17.242Z,92144.94
2022-08-11T12:03:52.524Z,92137.91
2022-08-11T12:06:27.375Z,92143.28
2022-08-11T12:09:00.671Z,92126.63
2022-08-11T12:11:50.672Z,92125.94
2022-08-11T12:14:26.935Z,92114.78
2022-08-11T12:17:00.275Z,92108.94
2022-08-11T12:19:35.832Z,92124.66
2022-08-11T12:22:28.324Z,92115.19
2022-08-11T12:29:00.412Z,92115.66
2022-08-11T12:31:34.214Z,92126.34
2022-08-11T12:34:08.819Z,92111.84
2022-08-11T12:36:56.237Z,92115.41
2022-08-11T12:40:16.527Z,92121.03
2022-08-11T12:43:21.253Z,92117.16
2022-08-11T12:45:58.814Z,92114.97
2022-08-11T12:49:00.864Z,92110.59
2022-08-11T12:52:12.552Z,92108.81
2022-08-11T12:54:59.268Z,92104.50
2022-08-11T12:57:53.533Z,92101.66
2022-08-11T13:00:46.610Z,92102.84
2022-08-11T13:03:39.074Z,92099.44
2022-08-11T13:06:12.147Z,92106.94
2022-08-11T13:08:47.092Z,92106.44
2022-08-11T13:11:55.662Z,92113.19
2022-08-11T13:14:32.240Z,92108.72
2022-08-11T13:17:40.088Z,92103.47
2022-08-11T13:20:19.842Z,92112.25
2022-08-11T13:22:54.252Z,92096.59
2022-08-11T13:25:31.313Z,92112.94
2022-08-11T13:28:05.662Z,92099.00
2022-08-11T13:30:56.670Z,92102.47
2022-08-11T13:33:29.414Z,92093.47
2022-08-11T13:36:02.935Z,92089.97
2022-08-11T13:38:37.184Z,92098.94
2022-08-11T13:41:24.994Z,92091.50
2022-08-11T13:43:59.088Z,92086.06
2022-08-11T13:46:35.779Z,92097.47
2022-08-11T13:49:09.018Z,92095.13
2022-08-11T13:51:41.560Z,92082.88
2022-08-11T13:54:18.202Z,92092.09
2022-08-11T13:56:54.326Z,92079.06
2022-08-11T13:59:30.054Z,92077.59
2022-08-11T14:02:22.252Z,92078.34
2022-08-11T14:05:04.852Z,92076.03
2022-08-11T14:07:49.517Z,92083.53
2022-08-11T14:10:28.172Z,92069.88
2022-08-11T14:13:18.141Z,92067.50
2022-08-11T14:15:52.742Z,92069.06
2022-08-11T14:18:28.537Z,92077.75
2022-08-11T14:21:22.511Z,92069.63
2022-08-11T14:23:55.139Z,92080.28
2022-08-11T14:26:30.902Z,92074.56
2022-08-11T14:29:09.381Z,92075.28
2022-08-11T14:31:46.555Z,92071.59
2022-08-11T14:34:21.020Z,92071.19
2022-08-11T14:36:55.418Z,92067.25
2022-08-11T14:39:29.522Z,92073.00
2022-08-11T14:42:23.330Z,92064.72
2022-08-11T14:45:16.072Z,92061.31
2022-08-11T14:47:51.958Z,92071.31
2022-08-11T14:50:26.860Z,92063.22
2022-08-11T14:53:01.332Z,92073.16
2022-08-11T14:55:54.500Z,92070.88
2022-08-11T14:58:30.004Z,92073.72
2022-08-11T15:01:23.709Z,92063.44
2022-08-11T15:04:34.993Z,92062.22
2022-08-11T15:06:52.730Z,92060.72
2022-08-11T15:09:25.725Z,92069.56
2022-08-11T15:12:31.488Z,92068.09
2022-08-11T15:15:19.666Z,92067.41
2022-08-11T15:17:53.803Z,92062.81
2022-08-11T15:20:47.166Z,92046.44
2022-08-11T15:23:37.755Z,92059.75
2022-08-11T15:26:13.575Z,92060.56
2022-08-11T15:29:14.262Z,92062.84
2022-08-11T15:32:05.939Z,92054.81
2022-08-11T15:35:03.289Z,92052.16
2022-08-11T15:37:38.354Z,92047.66
2022-08-11T15:40:35.805Z,92042.66
2022-08-11T15:43:34.040Z,92047.22
2022-08-11T15:46:11.612Z,92052.56
2022-08-11T15:48:47.671Z,92041.09
2022-08-11T15:51:26.950Z,92051.03
2022-08-11T15:54:09.039Z,92054.91
2022-08-11T15:56:45.102Z,92046.19
2022-08-11T15:59:42.966Z,92052.66
2022-08-11T16:02:38.102Z,92056.88
2022-08-11T16:05:13.650Z,92060.69
2022-08-11T16:08:07.318Z,92061.81
2022-08-11T16:10:44.018Z,92055.34
2022-08-11T16:13:36.150Z,92061.44
2022-08-11T16:16:16.516Z,92064.53
2022-08-11T16:18:55.419Z,92067.22
2022-08-11T16:21:35.725Z,92063.81
2022-08-11T16:27:05.986Z,92063.78
2022-08-11T16:27:13.568Z,92063.44
2022-08-11T16:29:50.222Z,92066.50
2022-08-11T16:32:25.064Z,92069.94
2022-08-11T16:35:17.996Z,92076.00
2022-08-11T16:38:09.988Z,92077.16
2022-08-11T16:40:44.606Z,92076.78
2022-08-11T16:43:37.899Z,92079.03
2022-08-11T16:46:32.143Z,92079.84
2022-08-11T16:49:06.395Z,92079.09
2022-08-11T16:51:38.964Z,92079.47
2022-08-11T16:54:12.220Z,92090.84
2022-08-11T16:56:47.639Z,92086.66
2022-08-11T16:59:24.658Z,92083.59
2022-08-11T17:02:02.020Z,92086.28
2022-08-11T17:04:57.430Z,92086.63
2022-08-11T17:07:48.427Z,92097.66
2022-08-11T17:10:51.257Z,92097.28
2022-08-11T17:13:31.768Z,92098.03
2022-08-11T17:16:07.508Z,92096.50
2022-08-11T17:18:47.414Z,92097.28
2022-08-11T17:21:22.783Z,92103.66
2022-08-11T17:24:01.049Z,92104.41
2022-08-11T17:26:57.407Z,92102.53
2022-08-11T17:29:53.509Z,92096.78
2022-08-11T17:32:57.244Z,92110.41
2022-08-11T17:35:38.015Z,92102.41
2022-08-11T17:38:15.495Z,92116.88
2022-08-11T17:41:15.265Z,92111.91
2022-08-11T17:44:14.214Z,92121.81
2022-08-11T17:47:06.553Z,92118.34
2022-08-11T17:49:40.653Z,92127.81
2022-08-11T17:52:35.241Z,92131.56
2022-08-11T17:55:52.026Z,92131.50
2022-08-11T17:58:39.802Z,92139.09
2022-08-11T18:01:12.669Z,92138.31
2022-08-11T18:03:56.239Z,92145.50
2022-08-11T18:06:33.650Z,92148.13
2022-08-11T18:09:28.812Z,92139.00
2022-08-11T18:12:22.317Z,92142.44
2022-08-11T18:15:14.755Z,92148.09
2022-08-11T18:18:05.220Z,92156.84
2022-08-11T18:20:56.183Z,92152.59
2022-08-11T18:23:48.533Z,92162.47
2022-08-11T18:26:41.991Z,92164.66
2022-08-11T18:29:42.074Z,92164.16
2022-08-11T18:32:53.729Z,92165.53
2022-08-11T18:35:51.179Z,92163.19
2022-08-11T18:38:45.771Z,92166.66
2022-08-11T18:41:38.228Z,92170.44
2022-08-11T18:44:33.443Z,92170.84
2022-08-11T18:47:29.595Z,92169.25
2022-08-11T18:53:31.148Z,92162.06
2022-08-11T18:56:22.067Z,92164.25
2022-08-11T18:59:15.264Z,92163.84
2022-08-11T19:02:06.270Z,92168.38
2022-08-11T19:04:58.498Z,92167.97
2022-08-11T19:07:50.991Z,92164.94
2022-08-11T19:10:42.073Z,92164.16
2022-08-11T19:13:33.377Z,92157.00
2022-08-11T19:16:26.831Z,92162.59
2022-08-11T19:19:18.300Z,92151.78
2022-08-11T19:22:09.719Z,92151.75
2022-08-11T19:25:04.151Z,92154.75
2022-08-11T19:27:58.328Z,92149.88
2022-08-11T19:30:50.512Z,92155.44
2022-08-11T19:34:02.922Z,92161.09
2022-08-11T19:36:55.888Z,92164.47
2022-08-11T19:39:47.962Z,92161.41
2022-08-11T19:42:40.104Z,92163.63
2022-08-11T19:45:32.884Z,92162.84
2022-08-11T19:48:32.390Z,92162.91
2022-08-11T19:51:25.682Z,92159.88
2022-08-11T19:54:17.298Z,92164.69
2022-08-11T19:57:09.545Z,92165.13
2022-08-11T20:00:01.715Z,92166.56
2022-08-11T20:02:54.903Z,92165.09
2022-08-11T20:05:59.544Z,92171.13
2022-08-11T20:08:56.422Z,92165.47
2022-08-11T20:11:53.391Z,92159.41
2022-08-11T20:14:48.485Z,92156.97
2022-08-11T20:17:43.141Z,92165.66
2022-08-11T20:20:34.919Z,92153.41
2022-08-11T20:23:28.110Z,92160.59
2022-08-11T20:26:30.712Z,92168.47
2022-08-11T20:29:24.455Z,92166.63
2022-08-11T20:32:16.418Z,92162.81
2022-08-11T20:35:06.898Z,92162.03
2022-08-11T20:37:58.828Z,92174.09
2022-08-11T20:40:49.779Z,92163.84
2022-08-11T20:44:08.284Z,92162.69
2022-08-11T20:46:54.245Z,92162.34
2022-08-11T20:49:53.817Z,92162.19
2022-08-11T20:52:48.118Z,92165.97
2022-08-11T20:55:52.186Z,92170.03
2022-08-11T20:59:14.011Z,92167.44
2022-08-11T21:01:59.042Z,92172.66
2022-08-11T21:04:55.141Z,92167.34
2022-08-11T21:07:56.761Z,92166.81
2022-08-11T21:10:51.646Z,92173.97
2022-08-11T21:13:47.118Z,92166.63
2022-08-11T21:16:47.600Z,92170.59
2022-08-11T21:20:00.644Z,92180.31
2022-08-11T21:22:59.520Z,92172.63
2022-08-11T21:26:03.612Z,92182.56
2022-08-11T21:28:57.341Z,92180.16
2022-08-11T21:31:50.302Z,92182.53
2022-08-11T21:34:42.688Z,92179.00
2022-08-11T21:37:35.394Z,92186.53
2022-08-11T21:40:28.851Z,92177.00
2022-08-11T21:43:21.922Z,92183.72
2022-08-11T21:46:15.451Z,92169.59
2022-08-11T21:49:06.999Z,92178.06
2022-08-11T21:51:57.507Z,92186.78
2022-08-11T21:54:49.031Z,92189.78
2022-08-11T21:57:48.006Z,92187.38
2022-08-11T22:00:41.102Z,92185.44
2022-08-11T22:03:36.507Z,92188.44
2022-08-11T22:06:41.035Z,92185.59
2022-08-11T22:09:31.455Z,92189.16
2022-08-11T22:12:34.144Z,92187.63
2022-08-11T22:15:27.883Z,92189.78
2022-08-11T22:18:19.862Z,92192.03
2022-08-11T22:21:11.783Z,92193.91
2022-08-11T22:24:09.507Z,92193.44
2022-08-11T22:27:00.392Z,92181.59
2022-08-11T22:29:51.528Z,92179.03
2022-08-11T22:32:43.117Z,92171.50
2022-08-11T22:35:34.578Z,92171.50
2022-08-11T22:38:26.952Z,92180.75
2022-08-11T22:41:17.484Z,92173.66
2022-08-11T22:44:08.074Z,92172.53
2022-08-11T22:47:00.092Z,92160.69
2022-08-11T22:49:57.763Z,92166.34
2022-08-11T22:52:47.226Z,92147.13
2022-08-11T22:55:40.086Z,92156.31
2022-08-11T22:58:32.517Z,92158.50
2022-08-11T23:01:23.663Z,92156.47
2022-08-11T23:04:15.091Z,92161.34
2022-08-11T23:07:07.830Z,92154.75
2022-08-11T23:09:58.748Z,92159.06
2022-08-11T23:12:51.575Z,92156.84
2022-08-11T23:15:42.658Z,92148.75
2022-08-11T23:18:34.203Z,92149.25
2022-08-11T23:21:25.438Z,92153.47
2022-08-11T23:24:17.109Z,92151.88
2022-08-11T23:27:08.221Z,92150.22
2022-08-11T23:30:00.065Z,92165.25
2022-08-11T23:32:51.509Z,92156.69
2022-08-11T23:35:53.727Z,92156.47
2022-08-11T23:38:47.452Z,92144.72
2022-08-11T23:41:38.671Z,92150.78
2022-08-11T23:44:29.312Z,92156.69
2022-08-11T23:47:22.239Z,92151.00
2022-08-11T23:50:13.391Z,92150.91
2022-08-11T23:53:08.520Z,92139.81
2022-08-11T23:55:59.571Z,92149.13
2022-08-11T23:58:52.311Z,92143.78
